Terminal Aerodrome Forecast
Issued by NWS Grand Rapids, MI

Home | Current Version | Previous Version | Text Only | Print | Product List | Glossary On
Versions: 1 2 3 4 5 6 7 8 9 10 11 12 13 14 15 16 17 18 19 20 21 22 23 24 25 26 27
000
FTUS43 KGRR 212300
TAFGRR
TAF
KGRR 212332Z 2200/2224 00000KT P6SM SCT015 BKN110 BKN210
     FM220700 14003KT 4SM BR OVC015
     FM221100 15005KT 2SM BR OVC005
     FM221600 16006KT 4SM HZ OVC015
     FM221800 21005KT P6SM BKN050=

USA.gov is the U.S. government's official web portal to all federal, state and local government web resources and services.